Time;durP1;ratioP1;P1;durP2;ratioP2;P2;SDS_P1;SDS_P2;PMS_P1;PMS_P2;Temp;Humidity;BMP_temperature;BMP_pressure;BME280_temperature;BME280_humidity;BME280_pressure;Samples;Min_cycle;Max_cycle;Signal;HPM_P1;HPM_P2
2021/03/31 00:00:28;;;;;;;0.10;0.10;;;;;;;;;;5077610;28;20326;-65
2021/03/31 00:02:57;;;;;;;0.00;0.00;;;;;;;;;;5112004;28;20077;-66
2021/03/31 00:05:22;;;;;;;0.00;0.00;;;;;;;;;;5092795;28;20015;-66
2021/03/31 00:07:47;;;;;;;0.00;0.00;;;;;;;;;;5113957;28;20594;-66
2021/03/31 00:10:39;;;;;;;0.10;0.10;;;;;;;;;;5076929;28;20039;-65
2021/03/31 00:13:04;;;;;;;0.10;0.10;;;;;;;;;;5102724;28;20044;-64
2021/03/31 00:15:30;;;;;;;0.10;0.10;;;;;;;;;;5091683;28;20077;-64
2021/03/31 00:17:55;;;;;;;0.10;0.10;;;;;;;;;;5092108;28;20352;-65
2021/03/31 00:20:21;;;;;;;0.00;0.00;;;;;;;;;;5109704;28;20028;-65
2021/03/31 00:22:46;;;;;;;0.00;0.00;;;;;;;;;;5110452;28;20285;-65
2021/03/31 00:25:11;;;;;;;0.10;0.10;;;;;;;;;;5109610;28;20796;-65
2021/03/31 00:27:37;;;;;;;0.10;0.10;;;;;;;;;;5091467;28;20277;-65
2021/03/31 00:30:03;;;;;;;0.10;0.10;;;;;;;;;;5090746;28;20117;-65
2021/03/31 00:32:28;;;;;;;0.00;0.00;;;;;;;;;;5091588;28;20281;-65
2021/03/31 00:34:54;;;;;;;0.10;0.10;;;;;;;;;;5073307;28;20050;-65
2021/03/31 00:37:19;;;;;;;0.10;0.10;;;;;;;;;;5109873;28;20273;-65
2021/03/31 00:39:45;;;;;;;0.00;0.00;;;;;;;;;;5091126;28;20285;-65
2021/03/31 00:42:10;;;;;;;0.00;0.00;;;;;;;;;;5109899;28;20293;-65
2021/03/31 00:44:35;;;;;;;0.10;0.10;;;;;;;;;;5075365;28;20019;-65
2021/03/31 00:47:04;;;;;;;0.00;0.00;;;;;;;;;;5074770;28;20266;-64
2021/03/31 00:49:29;;;;;;;0.00;0.00;;;;;;;;;;5090431;28;20258;-64
2021/03/31 00:51:55;;;;;;;0.10;0.10;;;;;;;;;;5089627;28;20026;-65
2021/03/31 00:54:20;;;;;;;0.10;0.10;;;;;;;;;;5090805;28;20285;-65
2021/03/31 00:56:45;;;;;;;0.10;0.10;;;;;;;;;;5090332;28;20020;-65
2021/03/31 00:59:10;;;;;;;0.10;0.10;;;;;;;;;;5092448;28;20724;-65
2021/03/31 01:01:35;;;;;;;0.10;0.10;;;;;;;;;;5094355;28;20289;-65
2021/03/31 01:04:00;;;;;;;0.10;0.10;;;;;;;;;;5094555;28;20621;-65
2021/03/31 01:06:26;;;;;;;0.10;0.10;;;;;;;;;;5094948;28;20455;-65
2021/03/31 01:08:51;;;;;;;0.00;0.00;;;;;;;;;;5094315;28;20299;-64
2021/03/31 01:11:17;;;;;;;0.10;0.10;;;;;;;;;;5094905;28;20344;-64
2021/03/31 01:13:47;;;;;;;0.10;0.10;;;;;;;;;;5094871;28;20273;-64
2021/03/31 01:16:27;;;;;;;0.10;0.10;;;;;;;;;;5093534;28;20027;-65
2021/03/31 01:18:55;;;;;;;0.10;0.10;;;;;;;;;;5076927;28;20035;-64
2021/03/31 01:21:39;;;;;;;0.10;0.10;;;;;;;;;;5092459;28;20019;-64
2021/03/31 01:24:07;;;;;;;0.10;0.10;;;;;;;;;;5111379;28;20023;-64
2021/03/31 01:26:38;;;;;;;0.10;0.10;;;;;;;;;;5111868;28;20016;-64
2021/03/31 01:29:06;;;;;;;0.10;0.10;;;;;;;;;;5093578;28;20407;-65
2021/03/31 01:31:37;;;;;;;0.10;0.10;;;;;;;;;;5091663;28;20084;-64
2021/03/31 01:34:21;;;;;;;0.10;0.10;;;;;;;;;;5057869;28;20036;-65
2021/03/31 01:36:46;;;;;;;0.10;0.10;;;;;;;;;;5090483;28;20107;-64
2021/03/31 01:39:11;;;;;;;0.10;0.10;;;;;;;;;;5073690;28;20170;-65
2021/03/31 01:41:36;;;;;;;0.10;0.10;;;;;;;;;;5074032;28;20331;-66
2021/03/31 01:44:02;;;;;;;0.10;0.10;;;;;;;;;;5074891;28;20097;-65
2021/03/31 01:46:30;;;;;;;0.10;0.10;;;;;;;;;;5074135;28;20508;-66
2021/03/31 01:48:56;;;;;;;0.10;0.10;;;;;;;;;;5073186;28;20020;-65
2021/03/31 01:51:22;;;;;;;0.10;0.10;;;;;;;;;;5074360;28;20590;-65
2021/03/31 01:53:47;;;;;;;0.07;0.07;;;;;;;;;;5058168;28;20374;-65
2021/03/31 01:56:12;;;;;;;0.10;0.10;;;;;;;;;;5058006;28;20282;-65
2021/03/31 01:58:37;;;;;;;0.10;0.10;;;;;;;;;;5074127;28;20278;-65
2021/03/31 02:01:02;;;;;;;0.10;0.10;;;;;;;;;;5073646;28;20734;-65
2021/03/31 02:03:28;;;;;;;0.10;0.10;;;;;;;;;;5072131;28;20510;-64
2021/03/31 02:05:54;;;;;;;0.10;0.10;;;;;;;;;;5073148;28;20016;-64
2021/03/31 02:08:19;;;;;;;0.10;0.10;;;;;;;;;;5072706;28;20539;-65
2021/03/31 02:10:45;;;;;;;0.10;0.10;;;;;;;;;;5056171;28;20056;-65
2021/03/31 02:13:10;;;;;;;0.00;0.00;;;;;;;;;;5074283;28;20048;-65
2021/03/31 02:15:35;;;;;;;0.10;0.10;;;;;;;;;;5073116;28;20020;-65
2021/03/31 02:18:02;;;;;;;0.10;0.10;;;;;;;;;;5073496;28;20457;-65
2021/03/31 02:20:27;;;;;;;0.10;0.10;;;;;;;;;;5057329;28;20027;-64
2021/03/31 02:22:55;;;;;;;0.10;0.10;;;;;;;;;;5073834;28;20465;-65
2021/03/31 02:25:20;;;;;;;0.10;0.10;;;;;;;;;;5057141;28;20270;-65
2021/03/31 02:27:46;;;;;;;0.10;0.10;;;;;;;;;;5065056;28;20143;-64
2021/03/31 02:30:12;;;;;;;0.10;0.10;;;;;;;;;;5094312;28;20081;-65
2021/03/31 02:32:37;;;;;;;0.10;0.10;;;;;;;;;;5111368;28;20023;-64
2021/03/31 02:35:02;;;;;;;0.10;0.10;;;;;;;;;;5091099;28;20380;-65
2021/03/31 02:37:27;;;;;;;0.10;0.10;;;;;;;;;;5076087;28;20380;-66
2021/03/31 02:39:53;;;;;;;0.10;0.10;;;;;;;;;;5093265;28;20725;-66
2021/03/31 02:42:18;;;;;;;0.10;0.10;;;;;;;;;;5092880;28;20052;-66
2021/03/31 02:44:47;;;;;;;0.10;0.10;;;;;;;;;;5076131;28;20015;-66
2021/03/31 02:47:13;;;;;;;0.10;0.10;;;;;;;;;;5093141;28;20028;-66
2021/03/31 02:49:38;;;;;;;0.10;0.10;;;;;;;;;;5077134;28;20448;-66
2021/03/31 02:52:03;;;;;;;0.10;0.10;;;;;;;;;;5093962;28;20035;-66
2021/03/31 02:54:31;;;;;;;0.10;0.10;;;;;;;;;;5094326;28;20023;-66
2021/03/31 02:56:56;;;;;;;0.10;0.10;;;;;;;;;;5093272;28;20019;-66
2021/03/31 02:59:21;;;;;;;0.10;0.10;;;;;;;;;;5076989;28;20875;-66
2021/03/31 03:01:47;;;;;;;0.10;0.10;;;;;;;;;;5093818;28;20019;-66
2021/03/31 03:04:12;;;;;;;0.10;0.10;;;;;;;;;;5094188;28;20399;-66
2021/03/31 03:06:37;;;;;;;0.10;0.10;;;;;;;;;;5076845;28;20527;-66
2021/03/31 03:09:03;;;;;;;0.10;0.10;;;;;;;;;;5093809;28;20045;-66
2021/03/31 03:11:29;;;;;;;0.10;0.10;;;;;;;;;;5093932;28;20265;-66
2021/03/31 03:13:54;;;;;;;0.10;0.10;;;;;;;;;;5076998;28;20023;-66
2021/03/31 03:16:19;;;;;;;0.10;0.10;;;;;;;;;;5093514;28;20770;-66
2021/03/31 03:18:44;;;;;;;0.10;0.10;;;;;;;;;;5076828;28;20020;-66
2021/03/31 03:21:12;;;;;;;0.10;0.10;;;;;;;;;;5093440;28;20273;-66
2021/03/31 03:23:38;;;;;;;0.10;0.10;;;;;;;;;;5111922;28;20261;-66
2021/03/31 03:26:03;;;;;;;0.10;0.10;;;;;;;;;;5093385;28;20357;-65
2021/03/31 03:28:29;;;;;;;0.10;0.10;;;;;;;;;;5092319;28;20584;-66
2021/03/31 03:30:54;;;;;;;0.10;0.10;;;;;;;;;;5093638;28;20284;-66
2021/03/31 03:33:19;;;;;;;0.10;0.10;;;;;;;;;;5076566;28;20034;-66
2021/03/31 03:35:44;;;;;;;0.13;0.13;;;;;;;;;;5092404;28;20035;-66
2021/03/31 03:38:10;;;;;;;0.10;0.10;;;;;;;;;;5076541;28;20295;-66
2021/03/31 03:40:35;;;;;;;0.10;0.10;;;;;;;;;;5076346;28;20062;-66
2021/03/31 03:43:00;;;;;;;0.10;0.10;;;;;;;;;;5093196;28;20261;-66
2021/03/31 03:45:26;;;;;;;0.10;0.10;;;;;;;;;;5076172;28;20476;-66
2021/03/31 03:47:51;;;;;;;0.10;0.10;;;;;;;;;;5092930;28;20015;-66
2021/03/31 03:50:16;;;;;;;0.10;0.10;;;;;;;;;;5110958;28;20032;-66
2021/03/31 03:52:42;;;;;;;0.10;0.10;;;;;;;;;;5076484;28;20102;-66
2021/03/31 03:55:08;;;;;;;0.10;0.10;;;;;;;;;;5076049;28;20114;-66
2021/03/31 03:57:33;;;;;;;0.10;0.10;;;;;;;;;;5093260;28;20493;-66
2021/03/31 03:59:58;;;;;;;0.10;0.10;;;;;;;;;;5093161;28;20083;-66
2021/03/31 04:02:24;;;;;;;0.10;0.10;;;;;;;;;;5091387;28;20022;-66
2021/03/31 04:04:49;;;;;;;0.10;0.10;;;;;;;;;;5076290;28;20629;-66
2021/03/31 04:07:14;;;;;;;0.10;0.10;;;;;;;;;;5075344;28;20065;-66
2021/03/31 04:09:40;;;;;;;0.10;0.10;;;;;;;;;;5091088;28;20020;-66
2021/03/31 04:12:05;;;;;;;0.10;0.10;;;;;;;;;;5092629;28;20265;-66
2021/03/31 04:14:31;;;;;;;0.10;0.10;;;;;;;;;;5092463;28;20092;-66
2021/03/31 04:16:56;;;;;;;0.10;0.10;;;;;;;;;;5092218;28;20365;-66
2021/03/31 04:19:21;;;;;;;0.10;0.10;;;;;;;;;;5092915;28;20468;-66
2021/03/31 04:21:49;;;;;;;0.10;0.10;;;;;;;;;;5093037;28;20023;-66
2021/03/31 04:24:14;;;;;;;0.10;0.10;;;;;;;;;;5093413;28;20464;-66
2021/03/31 04:26:39;;;;;;;0.10;0.10;;;;;;;;;;5110044;28;20012;-66
2021/03/31 04:29:08;;;;;;;0.10;0.10;;;;;;;;;;5073488;28;20123;-66
2021/03/31 04:31:34;;;;;;;0.10;0.10;;;;;;;;;;5071718;28;20031;-66
2021/03/31 04:34:00;;;;;;;0.10;0.10;;;;;;;;;;5056414;28;20032;-65
2021/03/31 04:36:27;;;;;;;0.10;0.10;;;;;;;;;;5076452;28;20387;-66
2021/03/31 04:38:52;;;;;;;0.10;0.10;;;;;;;;;;5076904;28;20024;-67
2021/03/31 04:41:18;;;;;;;0.10;0.10;;;;;;;;;;5059297;28;20107;-66
2021/03/31 04:43:43;;;;;;;0.10;0.10;;;;;;;;;;5076891;28;20262;-66
2021/03/31 04:46:08;;;;;;;0.10;0.10;;;;;;;;;;5060416;28;20274;-66
2021/03/31 04:48:34;;;;;;;0.10;0.10;;;;;;;;;;5060257;28;20049;-66
2021/03/31 04:50:59;;;;;;;0.10;0.10;;;;;;;;;;5076270;28;20020;-66
2021/03/31 04:53:24;;;;;;;0.10;0.10;;;;;;;;;;5095156;28;20062;-67
2021/03/31 04:55:50;;;;;;;0.10;0.10;;;;;;;;;;5059999;28;20020;-66
2021/03/31 04:58:15;;;;;;;0.10;0.10;;;;;;;;;;5076842;28;20356;-66
2021/03/31 05:00:40;;;;;;;0.10;0.10;;;;;;;;;;5060097;28;20115;-66
2021/03/31 05:03:08;;;;;;;0.10;0.10;;;;;;;;;;5060170;28;20047;-65
2021/03/31 05:05:34;;;;;;;0.15;0.15;;;;;;;;;;5076344;28;20304;-65
2021/03/31 05:07:59;;;;;;;0.10;0.10;;;;;;;;;;5059787;28;20016;-65
2021/03/31 05:10:24;;;;;;;0.13;0.13;;;;;;;;;;5074696;28;20473;-65
2021/03/31 05:12:50;;;;;;;0.10;0.10;;;;;;;;;;5094181;28;20027;-66
2021/03/31 05:15:15;;;;;;;0.20;0.20;;;;;;;;;;5059478;28;20529;-65
2021/03/31 05:17:40;;;;;;;0.10;0.10;;;;;;;;;;5076109;28;20047;-65
2021/03/31 05:20:06;;;;;;;0.20;0.20;;;;;;;;;;5093594;28;20074;-65
2021/03/31 05:22:31;;;;;;;0.10;0.10;;;;;;;;;;5075807;28;20491;-66
2021/03/31 05:24:56;;;;;;;0.10;0.10;;;;;;;;;;5075549;28;20023;-65
2021/03/31 05:27:21;;;;;;;0.10;0.10;;;;;;;;;;5095147;28;20784;-65
2021/03/31 05:29:47;;;;;;;0.10;0.10;;;;;;;;;;5085948;28;20395;-65
2021/03/31 05:32:12;;;;;;;0.10;0.10;;;;;;;;;;5089470;28;20057;-66
2021/03/31 05:34:37;;;;;;;0.10;0.10;;;;;;;;;;5086616;28;20028;-66
2021/03/31 05:37:02;;;;;;;0.10;0.10;;;;;;;;;;5104587;28;20451;-66
2021/03/31 05:39:28;;;;;;;0.10;0.10;;;;;;;;;;5086659;28;20289;-65
2021/03/31 05:41:53;;;;;;;0.10;0.10;;;;;;;;;;5069235;28;20077;-66
2021/03/31 05:44:18;;;;;;;0.10;0.10;;;;;;;;;;5084703;28;20270;-65
2021/03/31 05:46:44;;;;;;;0.10;0.10;;;;;;;;;;5078490;28;20024;-66
2021/03/31 05:49:09;;;;;;;0.10;0.10;;;;;;;;;;5088134;28;20300;-66
2021/03/31 05:51:34;;;;;;;0.10;0.10;;;;;;;;;;5085339;28;20024;-66
2021/03/31 05:53:59;;;;;;;0.10;0.10;;;;;;;;;;5099742;28;20031;-65
2021/03/31 05:56:24;;;;;;;0.10;0.10;;;;;;;;;;5086883;28;20265;-66
2021/03/31 05:58:50;;;;;;;0.10;0.10;;;;;;;;;;5084191;28;20298;-66
2021/03/31 06:01:15;;;;;;;0.10;0.10;;;;;;;;;;5089615;28;20110;-66
2021/03/31 06:03:40;;;;;;;0.10;0.10;;;;;;;;;;5084026;28;20035;-65
2021/03/31 06:06:05;;;;;;;0.10;0.10;;;;;;;;;;5079507;28;20502;-65
2021/03/31 06:08:31;;;;;;;0.10;0.10;;;;;;;;;;5057430;28;20020;-66
2021/03/31 06:10:59;;;;;;;0.10;0.10;;;;;;;;;;5102087;28;20285;-65
2021/03/31 06:13:25;;;;;;;0.15;0.15;;;;;;;;;;5085682;28;20431;-66
2021/03/31 06:15:50;;;;;;;0.20;0.20;;;;;;;;;;5080149;28;20150;-65
2021/03/31 06:18:18;;;;;;;0.10;0.10;;;;;;;;;;5062875;28;20023;-66
2021/03/31 06:20:49;;;;;;;0.10;0.10;;;;;;;;;;5081490;28;20028;-65
2021/03/31 06:23:28;;;;;;;0.10;0.10;;;;;;;;;;5085694;28;20023;-66
2021/03/31 06:25:59;;;;;;;0.10;0.10;;;;;;;;;;5085197;28;20102;-66
2021/03/31 06:28:27;;;;;;;0.10;0.10;;;;;;;;;;5104028;28;20048;-65
2021/03/31 06:31:03;;;;;;;0.10;0.10;;;;;;;;;;5086953;28;20103;-66
2021/03/31 06:33:29;;;;;;;0.10;0.10;;;;;;;;;;5081406;28;20479;-65
2021/03/31 06:35:54;;;;;;;0.10;0.10;;;;;;;;;;5083549;28;20036;-66
2021/03/31 06:38:19;;;;;;;0.20;0.20;;;;;;;;;;5099770;28;20028;-65
2021/03/31 06:40:46;;;;;;;0.20;0.20;;;;;;;;;;5065679;28;20287;-66
2021/03/31 06:43:28;;;;;;;0.10;0.10;;;;;;;;;;5103267;28;20326;-66
2021/03/31 06:45:59;;;;;;;0.10;0.10;;;;;;;;;;5064698;28;20107;-65
2021/03/31 06:48:26;;;;;;;0.10;0.10;;;;;;;;;;5061294;28;20413;-65
2021/03/31 06:50:52;;;;;;;0.10;0.10;;;;;;;;;;5100388;28;20078;-65
2021/03/31 06:53:24;;;;;;;0.10;0.10;;;;;;;;;;5065562;28;20031;-66
2021/03/31 06:55:56;;;;;;;0.10;0.10;;;;;;;;;;5082372;28;20273;-66
2021/03/31 06:58:21;;;;;;;0.10;0.10;;;;;;;;;;5077649;28;20024;-66
2021/03/31 07:00:46;;;;;;;0.10;0.10;;;;;;;;;;5061624;28;20008;-66
2021/03/31 07:03:12;;;;;;;0.10;0.10;;;;;;;;;;5080926;28;20335;-66
2021/03/31 07:05:37;;;;;;;0.10;0.10;;;;;;;;;;5065715;28;20266;-66
2021/03/31 07:08:03;;;;;;;0.10;0.10;;;;;;;;;;5065793;28;20024;-65
2021/03/31 07:10:28;;;;;;;0.10;0.10;;;;;;;;;;5086165;28;20040;-66
2021/03/31 07:12:54;;;;;;;0.10;0.10;;;;;;;;;;5074887;28;20019;-66
2021/03/31 07:15:21;;;;;;;0.10;0.10;;;;;;;;;;5064998;28;20058;-66
2021/03/31 07:17:56;;;;;;;0.10;0.10;;;;;;;;;;5087829;28;20030;-65
2021/03/31 07:20:21;;;;;;;0.10;0.10;;;;;;;;;;5084348;28;20015;-65
2021/03/31 07:22:47;;;;;;;0.10;0.10;;;;;;;;;;5084088;28;20032;-66
2021/03/31 07:25:13;;;;;;;0.10;0.10;;;;;;;;;;5101463;28;20012;-66
2021/03/31 07:27:39;;;;;;;0.10;0.10;;;;;;;;;;5088698;28;20035;-65
2021/03/31 07:30:09;;;;;;;0.10;0.10;;;;;;;;;;5112689;28;20160;-66
2021/03/31 07:32:41;;;;;;;0.20;0.20;;;;;;;;;;5094473;28;20024;-69
2021/03/31 07:35:07;;;;;;;0.10;0.10;;;;;;;;;;5112715;28;20019;-65
2021/03/31 07:37:32;;;;;;;0.10;0.10;;;;;;;;;;5094427;28;20034;-66
2021/03/31 07:40:02;;;;;;;0.10;0.10;;;;;;;;;;5078447;28;20051;-66
2021/03/31 07:42:28;;;;;;;0.20;0.20;;;;;;;;;;5096125;28;20019;-65
2021/03/31 07:44:53;;;;;;;0.10;0.10;;;;;;;;;;5095690;28;20023;-65
2021/03/31 07:47:18;;;;;;;0.10;0.10;;;;;;;;;;5095578;28;20035;-69
2021/03/31 07:49:44;;;;;;;0.10;0.10;;;;;;;;;;5107257;28;20016;-66
2021/03/31 07:52:09;;;;;;;0.10;0.10;;;;;;;;;;5107488;28;20265;-68
2021/03/31 07:54:34;;;;;;;0.10;0.10;;;;;;;;;;5114000;28;20049;-65
2021/03/31 07:57:18;;;;;;;0.10;0.10;;;;;;;;;;5077114;28;20024;-65
2021/03/31 07:59:43;;;;;;;0.10;0.10;;;;;;;;;;5112372;28;20022;-65
2021/03/31 08:02:08;;;;;;;0.10;0.10;;;;;;;;;;5093343;28;20114;-65
2021/03/31 08:04:34;;;;;;;0.10;0.10;;;;;;;;;;5093891;28;20599;-66
2021/03/31 08:07:00;;;;;;;0.10;0.10;;;;;;;;;;5093591;28;20018;-65
2021/03/31 08:09:28;;;;;;;0.10;0.10;;;;;;;;;;5075820;28;20664;-65
2021/03/31 08:11:54;;;;;;;0.10;0.10;;;;;;;;;;5079389;28;20535;-66
2021/03/31 08:14:30;;;;;;;0.10;0.10;;;;;;;;;;5078499;28;20031;-65
2021/03/31 08:16:57;;;;;;;0.00;0.00;;;;;;;;;;5095877;28;20020;-66
2021/03/31 08:19:24;;;;;;;0.10;0.10;;;;;;;;;;5096033;28;20029;-65
2021/03/31 08:21:52;;;;;;;0.10;0.10;;;;;;;;;;5112802;28;20032;-65
2021/03/31 08:24:18;;;;;;;0.00;0.00;;;;;;;;;;5078722;28;20054;-65
2021/03/31 08:26:44;;;;;;;0.10;0.10;;;;;;;;;;5094419;28;20762;-65
2021/03/31 08:29:19;;;;;;;0.00;0.00;;;;;;;;;;5093781;28;20082;-65
2021/03/31 08:31:44;;;;;;;0.10;0.10;;;;;;;;;;5111711;28;20016;-65
2021/03/31 08:34:10;;;;;;;0.00;0.00;;;;;;;;;;5094664;28;20396;-66
2021/03/31 08:36:36;;;;;;;0.10;0.10;;;;;;;;;;5095738;28;20028;-65
2021/03/31 08:39:03;;;;;;;0.00;0.00;;;;;;;;;;5093857;28;20020;-65
2021/03/31 08:41:28;;;;;;;0.00;0.00;;;;;;;;;;5076241;28;20109;-65
2021/03/31 08:44:10;;;;;;;0.00;0.00;;;;;;;;;;5111504;28;20452;-66
2021/03/31 08:46:35;;;;;;;0.10;0.10;;;;;;;;;;5094248;28;20054;-65
2021/03/31 08:49:00;;;;;;;0.10;0.10;;;;;;;;;;5092902;28;20039;-65
2021/03/31 08:51:25;;;;;;;0.00;0.00;;;;;;;;;;5092165;28;20062;-65
2021/03/31 08:53:51;;;;;;;0.10;0.10;;;;;;;;;;5093550;28;20432;-65
2021/03/31 08:56:17;;;;;;;0.00;0.00;;;;;;;;;;5076696;28;20538;-65
2021/03/31 08:58:42;;;;;;;0.00;0.00;;;;;;;;;;5093576;28;20138;-65
2021/03/31 09:01:07;;;;;;;0.10;0.10;;;;;;;;;;5113023;28;20098;-65
2021/03/31 09:03:32;;;;;;;0.10;0.10;;;;;;;;;;5075839;28;20475;-65
2021/03/31 09:05:59;;;;;;;0.10;0.10;;;;;;;;;;5094733;28;20330;-65
2021/03/31 09:08:24;;;;;;;0.10;0.10;;;;;;;;;;5095200;28;20269;-65
2021/03/31 09:10:57;;;;;;;0.00;0.00;;;;;;;;;;5096417;28;20039;-64
2021/03/31 09:13:32;;;;;;;0.03;0.03;;;;;;;;;;5114324;28;20015;-65
2021/03/31 09:15:58;;;;;;;0.00;0.00;;;;;;;;;;5095239;28;20463;-65
2021/03/31 09:18:24;;;;;;;0.10;0.10;;;;;;;;;;5096324;28;20019;-65
2021/03/31 09:20:49;;;;;;;0.00;0.00;;;;;;;;;;5095498;28;20016;-65
2021/03/31 09:23:18;;;;;;;0.10;0.10;;;;;;;;;;5095657;28;20055;-65
2021/03/31 09:25:51;;;;;;;0.00;0.00;;;;;;;;;;5078110;28;20023;-65
2021/03/31 09:28:16;;;;;;;0.10;0.10;;;;;;;;;;5094889;28;20575;-66
2021/03/31 09:30:42;;;;;;;0.00;0.00;;;;;;;;;;5078411;28;20054;-65
2021/03/31 09:33:13;;;;;;;0.00;0.00;;;;;;;;;;5113550;28;20111;-65
2021/03/31 09:35:39;;;;;;;0.10;0.10;;;;;;;;;;5095422;28;20024;-65
2021/03/31 09:38:04;;;;;;;0.00;0.00;;;;;;;;;;5079020;28;20426;-66
2021/03/31 09:40:30;;;;;;;0.10;0.10;;;;;;;;;;5113717;28;20292;-65
2021/03/31 09:42:56;;;;;;;0.10;0.10;;;;;;;;;;5113734;28;20451;-65
2021/03/31 09:45:24;;;;;;;0.10;0.10;;;;;;;;;;5078611;28;20041;-66
2021/03/31 09:47:50;;;;;;;0.00;0.00;;;;;;;;;;5095251;28;20097;-66
2021/03/31 09:50:15;;;;;;;0.00;0.00;;;;;;;;;;5077670;28;20041;-66
2021/03/31 09:52:40;;;;;;;0.00;0.00;;;;;;;;;;5112268;28;20080;-66
2021/03/31 09:55:07;;;;;;;0.00;0.00;;;;;;;;;;5112712;28;20287;-65
2021/03/31 09:57:32;;;;;;;0.00;0.00;;;;;;;;;;5094310;28;20269;-66
2021/03/31 10:00:01;;;;;;;0.00;0.00;;;;;;;;;;5094427;28;20023;-66
2021/03/31 10:02:26;;;;;;;0.00;0.00;;;;;;;;;;5094521;28;20023;-66
2021/03/31 10:04:52;;;;;;;0.10;0.10;;;;;;;;;;5092870;28;20039;-66
2021/03/31 10:07:18;;;;;;;0.00;0.00;;;;;;;;;;5093739;28;20039;-66
2021/03/31 10:09:47;;;;;;;0.00;0.00;;;;;;;;;;5111884;28;20471;-66
2021/03/31 10:12:19;;;;;;;0.08;0.08;;;;;;;;;;5075402;28;20632;-66
2021/03/31 10:14:47;;;;;;;0.00;0.00;;;;;;;;;;5111334;28;20107;-66
2021/03/31 10:17:12;;;;;;;0.00;0.00;;;;;;;;;;5093165;28;20082;-66
2021/03/31 10:19:37;;;;;;;0.00;0.00;;;;;;;;;;5112088;28;20027;-66
2021/03/31 10:22:06;;;;;;;0.00;0.00;;;;;;;;;;5093605;28;20043;-66
2021/03/31 10:24:38;;;;;;;0.00;0.00;;;;;;;;;;5094525;28;20266;-66
2021/03/31 10:27:04;;;;;;;0.00;0.00;;;;;;;;;;5076342;28;20424;-66
2021/03/31 10:29:29;;;;;;;0.00;0.00;;;;;;;;;;5092602;28;20116;-67
2021/03/31 10:31:55;;;;;;;0.00;0.00;;;;;;;;;;5074578;28;20024;-67
2021/03/31 10:34:20;;;;;;;0.00;0.00;;;;;;;;;;5092274;28;20024;-66
2021/03/31 10:50:56;;;;;;;0.00;0.00;;;;;;;;;;5092889;28;20051;-67
2021/03/31 10:53:32;;;;;;;0.00;0.00;;;;;;;;;;5073906;28;20044;-66
2021/03/31 10:55:58;;;;;;;0.00;0.00;;;;;;;;;;5057925;28;20035;-66
2021/03/31 10:58:24;;;;;;;0.00;0.00;;;;;;;;;;5056844;28;20077;-65
2021/03/31 11:00:49;;;;;;;0.00;0.00;;;;;;;;;;5072693;28;20065;-66
2021/03/31 11:03:14;;;;;;;0.00;0.00;;;;;;;;;;5072850;28;20043;-65
2021/03/31 11:05:39;;;;;;;0.00;0.00;;;;;;;;;;5072581;28;20099;-65
2021/03/31 11:08:06;;;;;;;0.00;0.00;;;;;;;;;;5089628;28;20531;-65
2021/03/31 11:10:32;;;;;;;0.00;0.00;;;;;;;;;;5092080;28;20713;-66
2021/03/31 11:12:57;;;;;;;0.00;0.00;;;;;;;;;;5090937;28;20023;-66
2021/03/31 11:15:24;;;;;;;0.00;0.00;;;;;;;;;;5057027;28;20277;-67
2021/03/31 11:21:00;;;;;;;0.00;0.00;;;;;;;;;;5090326;28;20020;-66
2021/03/31 11:26:00;;;;;;;0.00;0.00;;;;;;;;;;5075585;28;20048;-66
2021/03/31 11:28:25;;;;;;;0.00;0.00;;;;;;;;;;5086415;28;20043;-67
2021/03/31 11:30:50;;;;;;;0.00;0.00;;;;;;;;;;5094017;28;20026;-67
2021/03/31 11:33:16;;;;;;;0.00;0.00;;;;;;;;;;5076103;28;20042;-65
2021/03/31 11:35:41;;;;;;;0.00;0.00;;;;;;;;;;5073930;28;20054;-64
2021/03/31 11:38:06;;;;;;;0.00;0.00;;;;;;;;;;5090600;28;20108;-65
2021/03/31 11:40:31;;;;;;;0.10;0.00;;;;;;;;;;5074638;28;20142;-65
2021/03/31 11:42:57;;;;;;;0.00;0.00;;;;;;;;;;5091700;28;20015;-64
2021/03/31 11:45:22;;;;;;;0.00;0.00;;;;;;;;;;5091490;28;20016;-63
2021/03/31 11:47:48;;;;;;;0.00;0.00;;;;;;;;;;5091561;28;20019;-63
2021/03/31 11:50:13;;;;;;;0.00;0.00;;;;;;;;;;5110012;28;20112;-63
2021/03/31 11:52:38;;;;;;;0.00;0.00;;;;;;;;;;5074585;28;20305;-64
2021/03/31 11:55:04;;;;;;;0.00;0.00;;;;;;;;;;5091223;28;20064;-63
2021/03/31 11:57:29;;;;;;;0.00;0.00;;;;;;;;;;5108870;28;20372;-64
2021/03/31 11:59:54;;;;;;;0.00;0.00;;;;;;;;;;5074616;28;20019;-63
2021/03/31 12:02:20;;;;;;;0.00;0.00;;;;;;;;;;5091380;28;20286;-63
2021/03/31 12:04:45;;;;;;;0.00;0.00;;;;;;;;;;5109520;28;20262;-64
2021/03/31 12:07:12;;;;;;;0.00;0.00;;;;;;;;;;5090164;28;20418;-64
2021/03/31 12:09:41;;;;;;;0.00;0.00;;;;;;;;;;5108832;28;20292;-63
2021/03/31 12:12:07;;;;;;;0.00;0.00;;;;;;;;;;5110128;28;20043;-65
2021/03/31 12:14:33;;;;;;;0.00;0.00;;;;;;;;;;5092506;28;20428;-65
2021/03/31 12:16:58;;;;;;;0.00;0.00;;;;;;;;;;5092866;28;20106;-67
2021/03/31 12:19:24;;;;;;;0.00;0.00;;;;;;;;;;5076407;28;20600;-66
2021/03/31 12:21:49;;;;;;;0.00;0.00;;;;;;;;;;5092858;28;20045;-66
2021/03/31 12:24:14;;;;;;;0.00;0.00;;;;;;;;;;5075911;28;20015;-67
2021/03/31 12:26:39;;;;;;;0.00;0.00;;;;;;;;;;5093902;28;20037;-66
2021/03/31 12:29:05;;;;;;;0.00;0.00;;;;;;;;;;5094305;28;20335;-66
2021/03/31 12:31:30;;;;;;;0.00;0.00;;;;;;;;;;5073439;28;20272;-67
2021/03/31 12:33:55;;;;;;;0.00;0.00;;;;;;;;;;5073413;28;20020;-65
2021/03/31 12:36:20;;;;;;;0.00;0.00;;;;;;;;;;5074668;28;20035;-65
2021/03/31 12:38:45;;;;;;;0.00;0.00;;;;;;;;;;5092139;28;20283;-66
2021/03/31 12:41:11;;;;;;;0.00;0.00;;;;;;;;;;5076172;28;20043;-66
2021/03/31 12:43:36;;;;;;;0.00;0.00;;;;;;;;;;5093762;28;20266;-66
2021/03/31 12:46:01;;;;;;;0.00;0.00;;;;;;;;;;5075311;28;20372;-67
2021/03/31 12:48:27;;;;;;;0.00;0.00;;;;;;;;;;5080544;28;20610;-65
2021/03/31 12:51:18;;;;;;;0.00;0.00;;;;;;;;;;5088640;28;21590;-66
2021/03/31 12:53:45;;;;;;;0.00;0.00;;;;;;;;;;5085955;28;20032;-66
2021/03/31 12:56:10;;;;;;;0.00;0.00;;;;;;;;;;5074667;28;20020;-66
2021/03/31 12:58:40;;;;;;;0.00;0.00;;;;;;;;;;5077464;28;20507;-67
2021/03/31 13:01:23;;;;;;;0.00;0.00;;;;;;;;;;5078421;28;20069;-67
2021/03/31 13:03:49;;;;;;;0.00;0.00;;;;;;;;;;5063232;28;20039;-68
2021/03/31 13:06:14;;;;;;;0.00;0.00;;;;;;;;;;5076295;28;20012;-68
2021/03/31 13:08:39;;;;;;;0.00;0.00;;;;;;;;;;5077288;28;20027;-67
2021/03/31 13:11:05;;;;;;;0.00;0.00;;;;;;;;;;5095435;28;20070;-66
2021/03/31 13:16:04;;;;;;;0.00;0.00;;;;;;;;;;5074701;28;20062;-66
2021/03/31 13:31:37;;;;;;;0.00;0.00;;;;;;;;;;5087405;28;20047;-66
2021/03/31 13:34:11;;;;;;;0.00;0.00;;;;;;;;;;5069884;28;20476;-66
2021/03/31 13:36:50;;;;;;;0.00;0.00;;;;;;;;;;5105449;28;20104;-66
2021/03/31 13:39:19;;;;;;;0.00;0.00;;;;;;;;;;5090629;28;20034;-66
2021/03/31 13:41:44;;;;;;;0.00;0.00;;;;;;;;;;5068344;28;20028;-66
2021/03/31 13:44:10;;;;;;;0.00;0.00;;;;;;;;;;5089100;28;20008;-66
2021/03/31 13:46:40;;;;;;;0.00;0.00;;;;;;;;;;5069136;28;20024;-66
2021/03/31 13:49:09;;;;;;;0.00;0.00;;;;;;;;;;5085709;28;20028;-66
2021/03/31 13:51:47;;;;;;;0.00;0.00;;;;;;;;;;5084204;28;20019;-65
2021/03/31 13:54:12;;;;;;;0.00;0.00;;;;;;;;;;5085984;28;20032;-65
2021/03/31 13:56:40;;;;;;;0.00;0.00;;;;;;;;;;5089122;28;20089;-65
2021/03/31 13:59:07;;;;;;;0.00;0.00;;;;;;;;;;5085124;28;20039;-66
2021/03/31 14:01:32;;;;;;;0.00;0.00;;;;;;;;;;5080677;28;20016;-66
2021/03/31 14:03:57;;;;;;;0.00;0.00;;;;;;;;;;5080625;28;20486;-67
2021/03/31 14:06:22;;;;;;;0.00;0.00;;;;;;;;;;5086883;28;20095;-67
2021/03/31 14:08:48;;;;;;;0.00;0.00;;;;;;;;;;5099227;28;20011;-67
2021/03/31 14:11:13;;;;;;;0.00;0.00;;;;;;;;;;5083960;28;20697;-67
2021/03/31 14:13:38;;;;;;;0.00;0.00;;;;;;;;;;5104051;28;20095;-67
2021/03/31 14:16:04;;;;;;;0.00;0.00;;;;;;;;;;5077507;28;20023;-66
2021/03/31 14:18:31;;;;;;;0.00;0.00;;;;;;;;;;5071920;28;20304;-67
2021/03/31 14:20:56;;;;;;;0.00;0.00;;;;;;;;;;5103135;28;20016;-67
2021/03/31 14:23:22;;;;;;;0.00;0.00;;;;;;;;;;5086424;28;20046;-67
2021/03/31 14:25:47;;;;;;;0.00;0.00;;;;;;;;;;5084474;28;20261;-67
2021/03/31 14:28:12;;;;;;;0.00;0.00;;;;;;;;;;5090639;28;20071;-68
2021/03/31 14:30:37;;;;;;;0.00;0.00;;;;;;;;;;5079144;28;20015;-67
2021/03/31 14:33:03;;;;;;;0.00;0.00;;;;;;;;;;5114276;28;20476;-64
2021/03/31 14:35:28;;;;;;;0.00;0.00;;;;;;;;;;5096121;28;20031;-64
2021/03/31 14:37:53;;;;;;;0.00;0.00;;;;;;;;;;5092949;28;20491;-65
2021/03/31 14:40:18;;;;;;;0.00;0.00;;;;;;;;;;5114285;28;20303;-65
2021/03/31 14:42:44;;;;;;;0.00;0.00;;;;;;;;;;5095688;28;20282;-65
2021/03/31 14:45:09;;;;;;;0.00;0.00;;;;;;;;;;5095692;28;20031;-66
2021/03/31 14:47:37;;;;;;;0.00;0.00;;;;;;;;;;5114369;28;20274;-66
2021/03/31 14:50:03;;;;;;;0.00;0.00;;;;;;;;;;5096262;28;20035;-66
2021/03/31 15:00:25;;;;;;;0.00;0.00;;;;;;;;;;5114520;28;20099;-66
2021/03/31 15:02:50;;;;;;;0.00;0.00;;;;;;;;;;5094602;28;20873;-66
2021/03/31 15:05:15;;;;;;;0.00;0.00;;;;;;;;;;5095677;28;20020;-67
2021/03/31 15:07:41;;;;;;;0.00;0.00;;;;;;;;;;5095515;28;20310;-66
2021/03/31 15:10:06;;;;;;;0.00;0.00;;;;;;;;;;5095552;28;20097;-66
2021/03/31 15:12:31;;;;;;;0.00;0.00;;;;;;;;;;5113933;28;20265;-66
2021/03/31 15:14:58;;;;;;;0.00;0.00;;;;;;;;;;5078776;28;20034;-66
2021/03/31 15:17:23;;;;;;;0.00;0.00;;;;;;;;;;5095575;28;20023;-66
2021/03/31 15:20:01;;;;;;;0.00;0.00;;;;;;;;;;5093398;28;20588;-66
2021/03/31 15:25:01;;;;;;;0.00;0.00;;;;;;;;;;5096080;28;20106;-66